Seacod — DDPW — position and weather

sailwx.info

Track history (hours):
 
Tides and Currents Weather Stations Pressure Air Temp Water Temp Dewpoint Dewpoint Depression Visibility Wind Speed Wind Dir Waves Ship Positions

Seacod

Last reported at 2014-Oct-20 07:14 UTC. Time now 2014-Oct-20 11:30 UTC.
Position N 57°49' E 010°14'.

Length 188 m; draft 10.1 m.

Type: Ship. MMSI: 218019000.

Date/timePositionNaut miles runAvg speedWind from/ knotsBaromVisibWave heightAir tempDewpointWater temp
2014-Oct-20 07:14N 57°49' E 010°14'710.5
2014-Oct-20 06:33N 57°50' E 010°27'10 9.9
2014-Oct-20 05:33N 57°49' E 010°45'1110.6
2014-Oct-20 04:33N 57°42' E 011°01'1212.2
2014-Oct-20 03:32N 57°34' E 011°18'1312.8
2014-Oct-20 02:33N 57°23' E 011°29'1413.7
2014-Oct-20 01:33N 57°10' E 011°38'1413.7
2014-Oct-20 00:33N 56°57' E 011°47'1313.3
2014-Oct-19 23:33N 56°44' E 011°53'1414.0
2014-Oct-19 22:32N 56°31' E 011°41'11411.4
2014-Oct-19 12:31N 54°41' E 010°46'4212.7
2014-Oct-19 09:14N 54°26' E 011°53'912.9
2014-Oct-19 08:33N 54°26' E 012°08'2511.8
2014-Oct-19 06:27N 54°44' E 012°37'6112.3
2014-Oct-19 01:30N 55°11' E 014°12'1312.4
2014-Oct-19 00:29N 55°20' E 014°28'1312.4
2014-Oct-18 23:28N 55°29' E 014°43'1312.9
2014-Oct-18 22:28N 55°35' E 015°03'1612.7
2014-Oct-18 21:12N 55°43' E 015°27'913.2
2014-Oct-18 20:32N 55°47' E 015°41'1313.2
2014-Oct-18 19:33N 55°53' E 016°02'31413.5
2014-Oct-17 20:18N 59°35' E 022°58'1114.0
2014-Oct-17 19:33N 59°38' E 023°18'1414.1
2014-Oct-17 18:34N 59°41' E 023°45'1714.2
2014-Oct-17 17:21N 59°46' E 024°18'5714.1
2014-Oct-17 13:18N 59°58' E 026°08'1114.1
2014-Oct-17 12:33N 60°01' E 026°29'1413.5
2014-Oct-17 11:33N 59°60' E 026°56'  
2014-Oct-14 03:28N 59°58' E 027°00'1011.3
2014-Oct-14 02:33N 59°59' E 026°40'5811.3
2014-Oct-13 21:27N 59°46' E 024°47'9 9.8
2014-Oct-13 20:33N 59°45' E 024°30'1110.3
2014-Oct-13 19:31N 59°38' E 024°14'1010.8
2014-Oct-13 18:34N 59°31' E 024°30'1 0.7
2014-Oct-13 16:28N 59°29' E 024°31'0 0.0
2014-Oct-13 15:27N 59°29' E 024°31'0 0.0
2014-Oct-13 14:17N 59°29' E 024°31'33512.1
2014-Oct-12 10:32N 55°57' E 016°27'7612.6
2014-Oct-12 04:32N 55°18' E 014°32'1212.4
2014-Oct-12 03:33N 55°09' E 014°17'3812.5
2014-Oct-12 00:33N 55°14' E 013°12'1212.5
2014-Oct-11 23:33N 55°15' E 012°50'10 9.9
2014-Oct-11 22:33N 55°23' E 012°39'1111.1
2014-Oct-11 21:33N 55°34' E 012°42'1111.2
2014-Oct-11 20:33N 55°45' E 012°41'1312.6
2014-Oct-11 19:34N 55°58' E 012°40'1211.8
2014-Oct-11 18:33N 56°08' E 012°29'1111.3
2014-Oct-11 17:33N 56°14' E 012°12'1111.0
2014-Oct-11 16:33N 56°23' E 012°01'1212.3
2014-Oct-11 15:33N 56°35' E 011°56'1211.9
2014-Oct-11 14:33N 56°47' E 011°51'1211.5
2014-Oct-11 13:33N 56°58' E 011°44'1211.7
2014-Oct-11 12:31N 57°09' E 011°37'1111.9
2014-Oct-11 11:33N 57°20' E 011°29'1211.5
2014-Oct-11 10:33N 57°30' E 011°19'1111.2
2014-Oct-11 09:33N 57°38' E 011°04'1111.0
2014-Oct-11 08:33N 57°45' E 010°49'1312.7
2014-Oct-11 07:33N 57°48' E 010°26'1312.8
2014-Oct-11 06:34N 57°49' E 010°02'25912.3
2014-Oct-10 09:32N 54°25' E 005°13'1312.8
2014-Oct-10 08:33N 54°14' E 005°03'1212.3
2014-Oct-10 07:33N 54°03' E 004°55'  
Track history (hours):
 
Tides and Currents Weather Stations Pressure Air Temp Water Temp Dewpoint Dewpoint Depression Visibility Wind Speed Wind Dir Waves Ship Positions

Seacod

Last reported at 2014-Oct-20 07:14 UTC. Time now 2014-Oct-20 11:30 UTC.
Position N 57°49' E 010°14'.

Length 188 m; draft 10.1 m.

Type: Ship. MMSI: 218019000.

Date/timePositionNaut miles runAvg speedWind from/ knotsBaromVisibWave heightAir tempDewpointWater temp
2014-Oct-20 07:14N 57°49' E 010°14'710.5
2014-Oct-20 06:33N 57°50' E 010°27'10 9.9
2014-Oct-20 05:33N 57°49' E 010°45'1110.6
2014-Oct-20 04:33N 57°42' E 011°01'1212.2
2014-Oct-20 03:32N 57°34' E 011°18'1312.8
2014-Oct-20 02:33N 57°23' E 011°29'1413.7
2014-Oct-20 01:33N 57°10' E 011°38'1413.7
2014-Oct-20 00:33N 56°57' E 011°47'1313.3
2014-Oct-19 23:33N 56°44' E 011°53'1414.0
2014-Oct-19 22:32N 56°31' E 011°41'11411.4
2014-Oct-19 12:31N 54°41' E 010°46'4212.7
2014-Oct-19 09:14N 54°26' E 011°53'912.9
2014-Oct-19 08:33N 54°26' E 012°08'2511.8
2014-Oct-19 06:27N 54°44' E 012°37'6112.3
2014-Oct-19 01:30N 55°11' E 014°12'1312.4
2014-Oct-19 00:29N 55°20' E 014°28'1312.4
2014-Oct-18 23:28N 55°29' E 014°43'1312.9
2014-Oct-18 22:28N 55°35' E 015°03'1612.7
2014-Oct-18 21:12N 55°43' E 015°27'913.2
2014-Oct-18 20:32N 55°47' E 015°41'1313.2
2014-Oct-18 19:33N 55°53' E 016°02'31413.5
2014-Oct-17 20:18N 59°35' E 022°58'1114.0
2014-Oct-17 19:33N 59°38' E 023°18'1414.1
2014-Oct-17 18:34N 59°41' E 023°45'1714.2
2014-Oct-17 17:21N 59°46' E 024°18'5714.1
2014-Oct-17 13:18N 59°58' E 026°08'1114.1
2014-Oct-17 12:33N 60°01' E 026°29'1413.5
2014-Oct-17 11:33N 59°60' E 026°56'  
2014-Oct-14 03:28N 59°58' E 027°00'1011.3
2014-Oct-14 02:33N 59°59' E 026°40'5811.3
2014-Oct-13 21:27N 59°46' E 024°47'9 9.8
2014-Oct-13 20:33N 59°45' E 024°30'1110.3
2014-Oct-13 19:31N 59°38' E 024°14'1010.8
2014-Oct-13 18:34N 59°31' E 024°30'1 0.7
2014-Oct-13 16:28N 59°29' E 024°31'0 0.0
2014-Oct-13 15:27N 59°29' E 024°31'0 0.0
2014-Oct-13 14:17N 59°29' E 024°31'33512.1
2014-Oct-12 10:32N 55°57' E 016°27'7612.6
2014-Oct-12 04:32N 55°18' E 014°32'1212.4
2014-Oct-12 03:33N 55°09' E 014°17'3812.5
2014-Oct-12 00:33N 55°14' E 013°12'1212.5
2014-Oct-11 23:33N 55°15' E 012°50'10 9.9
2014-Oct-11 22:33N 55°23' E 012°39'1111.1
2014-Oct-11 21:33N 55°34' E 012°42'1111.2
2014-Oct-11 20:33N 55°45' E 012°41'1312.6
2014-Oct-11 19:34N 55°58' E 012°40'1211.8
2014-Oct-11 18:33N 56°08' E 012°29'1111.3
2014-Oct-11 17:33N 56°14' E 012°12'1111.0
2014-Oct-11 16:33N 56°23' E 012°01'1212.3
2014-Oct-11 15:33N 56°35' E 011°56'1211.9
2014-Oct-11 14:33N 56°47' E 011°51'1211.5
2014-Oct-11 13:33N 56°58' E 011°44'1211.7
2014-Oct-11 12:31N 57°09' E 011°37'1111.9
2014-Oct-11 11:33N 57°20' E 011°29'1211.5
2014-Oct-11 10:33N 57°30' E 011°19'1111.2
2014-Oct-11 09:33N 57°38' E 011°04'1111.0
2014-Oct-11 08:33N 57°45' E 010°49'1312.7
2014-Oct-11 07:33N 57°48' E 010°26'1312.8
2014-Oct-11 06:34N 57°49' E 010°02'25912.3
2014-Oct-10 09:32N 54°25' E 005°13'1312.8
2014-Oct-10 08:33N 54°14' E 005°03'1212.3
2014-Oct-10 07:33N 54°03' E 004°55'  

Dump ship's entire track history